Station: Swan Hill  

  Atmospheric Gas Attenuation - ITU Rec 676-11   ----------------- dB/100km -----------------
Date Time Temp RH % AH g/m3 Dew Point Wind Direction Speed kph Gust kph Barometer mB Rainfall Since 9am 24GHz 47GHz 76GHz 122GHz 134GHz 241GHz
08/05 12:30 17 60 8.68 9.2 32 44 1025.3 0 19.6 25.5 39.1 102.4 96.4 331.8
08/05 12:20 17.2 62 9.08 9.9 32 39 1025.4 0 20.4 26.1 40.5 106.3 101.3 349.0
08/05 12:10 16.6 62 8.76 9.3 30 35 1025.6 0 19.8 25.8 39.6 103.7 98.0 337.2
08/05 12:00 16.9 64 9.2 10.1 33 46 1025.6 0 20.7 26.4 41.2 108.0 103.3 355.9
08/05 11:50 16.4 66 9.21 10 32 41 1025.7 0 20.7 26.6 41.5 108.8 104.1 358.6
08/05 11:40 16.4 68 9.49 10.5 26 35 1025.8 0 21.3 27.0 42.6 111.8 107.8 371.6
08/05 11:30 15.5 69 9.12 9.8 32 41 1026.1 0 20.6 26.7 41.6 109.1 104.1 358.7
08/05 11:20 15.4 69 9.07 9.7 33 39 1026.2 0 20.5 26.7 41.5 108.7 103.6 356.8
08/05 11:10 15.4 68 8.93 9.5 37 44 1026.2 0 20.2 26.4 40.9 107.2 101.8 350.3
08/05 11:00 15.3 71 9.27 10.1 32 41 1026.3 0 20.9 27.0 42.3 111.0 106.4 366.6
08/05 10:50 15.4 72 9.46 10.4 32 35 1026.5 0 21.3 27.3 43.0 113.0 108.8 375.1
08/05 10:40 14.9 77 9.81 10.9 30 37 1026.7 0 22.1 28.1 44.8 117.6 114.3 394.3
08/05 10:30 14.3 77 9.46 10.3 32 41 1026.7 0 21.4 27.7 43.7 114.6 110.4 380.5
08/05 10:20 14.4 76 9.39 10.2 28 35 1026.7 0 21.2 27.5 43.3 113.7 109.3 376.7
08/05 10:10 14.3 77 9.46 10.3 33 39 1026.6 0 21.4 27.7 43.7 114.6 110.4 380.5
08/05 10:00 13.9 79 9.47 10.3 28 41 1026.5 0 21.4 27.8 43.9 115.3 111.1 382.9
08/05 09:50 13.8 80 9.53 10.4 24 32 1026.5 0 21.6 27.9 44.2 116.1 112.1 386.2
08/05 09:40 13.5 82 9.59 10.5 26 30 1026.5 0 21.7 28.1 44.6 117.2 113.4 390.6
08/05 09:30 13.2 82 9.42 10.2 30 39 1026.3 0 21.4 27.9 44.1 115.7 111.4 383.8
08/05 09:20 13.1 84 9.59 10.5 28 39 1026.6 0 21.7 28.3 44.9 117.8 114.0 392.7
08/05 09:10 12.5 85 9.35 10 28 32 1026.5 0 21.2 28.0 44.2 116.0 111.5 384.0
08/05 09:00 12.2 86 9.28 9.9 28 37 1026.1 0 21.1 28.0 44.0 115.6 110.9 381.9
08/05 08:50 12 87 9.27 9.9 28 32 1026.1 0 21.1 28.1 44.1 115.8 111.1 382.4
08/05 08:40 11.5 88 9.09 9.6 24 28 1026.4 0 20.7 27.9 43.6 114.5 109.3 376.1
08/05 08:30 11.4 88 9.03 9.5 22 30 1026.2 0 20.6 27.8 43.4 113.9 108.6 373.6
08/05 08:20 11.1 90 9.07 9.5 26 28 1026.1 0 20.7 28.0 43.8 114.8 109.5 377.0
08/05 08:10 10.8 91 9 9.4 20 24 1026 0 20.6 28.0 43.6 114.5 109.0 375.0
08/05 08:00 10.6 92 8.98 9.4 20 24 1026.1 0 20.5 28.0 43.7 114.5 109.0 375.0
08/05 07:50 10.6 92 8.98 9.4 22 26 1026 0 20.5 28.0 43.7 114.5 109.0 374.9
08/05 07:40 10.5 92 8.92 9.3 22 28 1025.9 0 20.4 27.9 43.5 114.0 108.3 372.4
08/05 07:30 10.6 92 8.98 9.4 22 32 1025.7 0 20.5 28.0 43.6 114.5 109.0 374.8
08/05 07:20 10.5 92 8.92 9.3 20 24 1025.8 0 20.4 27.9 43.4 114.0 108.3 372.4
08/05 07:10 10.6 92 8.98 9.4 24 26 1025.8 0 20.5 28.0 43.6 114.5 109.0 374.9
08/05 07:00 10.6 91 8.88 9.2 22 30 1025.8 0 20.3 27.8 43.2 113.4 107.6 369.9
08/05 06:50 10.7 90 8.84 9.1 26 32 1025.7 0 20.2 27.7 43.0 112.7 106.8 367.5
08/05 06:40 10.9 87 8.66 8.8 26 33 1025.5 0 19.8 27.3 42.1 110.4 104.0 357.7
08/05 06:30 10.9 86 8.56 8.7 26 33 1025.5 0 19.6 27.2 41.7 109.3 102.7 352.8
08/05 06:20 10.8 86 8.5 8.6 26 28 1025.2 0 19.5 27.1 41.5 108.7 101.9 350.3
08/05 06:10 10.7 85 8.35 8.3 24 28 1025.2 0 19.2 26.9 40.9 107.2 100.0 343.5
08/05 06:00 10.7 85 8.35 8.3 22 30 1025 0 19.2 26.9 40.9 107.1 100.0 343.4
08/05 05:50 10.7 85 8.35 8.3 24 28 1024.9 0 19.2 26.8 40.9 107.1 100.0 343.4
08/05 05:40 10.8 85 8.4 8.4 30 33 1024.7 0 19.3 26.9 41.0 107.5 100.5 345.3
08/05 05:30 10.8 85 8.4 8.4 28 39 1024.7 0 19.3 26.9 41.0 107.5 100.5 345.3
08/05 05:20 10.8 85 8.4 8.4 32 37 1024.5 0 19.3 26.9 41.0 107.5 100.5 345.3
08/05 05:10 10.8 85 8.4 8.4 30 35 1024.3 0 19.3 26.9 41.0 107.5 100.5 345.2
08/05 05:00 10.7 86 8.45 8.5 28 35 1024.4 0 19.4 27.0 41.3 108.2 101.3 348.1
08/05 04:50 10.1 88 8.32 8.2 28 32 1024.3 0 19.2 27.0 41.0 107.6 100.3 344.4
08/05 04:40 9.8 87 8.07 7.7 26 28 1024 0 18.6 26.6 40.1 105.1 97.2 333.6
08/05 04:30 9.7 87 8.02 7.6 24 32 1024.2 0 18.5 26.6 40.0 104.7 96.6 331.6
08/05 04:20 9.7 86 7.93 7.5 26 28 1024.3 0 18.3 26.4 39.6 103.7 95.4 327.3
08/05 04:10 9.8 86 7.98 7.6 28 32 1024.5 0 18.4 26.5 39.8 104.2 96.0 329.4
08/05 04:00 9.6 86 7.88 7.4 20 28 1024.5 0 18.2 26.4 39.5 103.3 94.9 325.4
08/05 03:50 9.5 87 7.92 7.4 19 20 1024.6 0 18.3 26.5 39.7 103.9 95.5 327.8
08/05 03:40 9.4 86 7.78 7.2 19 20 1024.4 0 18.0 26.3 39.1 102.5 93.7 321.4
08/05 03:30 9.6 86 7.88 7.4 22 32 1024.6 0 18.2 26.4 39.5 103.3 94.9 325.4
08/05 03:20 9.4 86 7.78 7.2 22 26 1024.7 0 18.0 26.3 39.2 102.5 93.7 321.5
08/05 03:10 9.3 86 7.73 7.1 24 30 1025 0 17.9 26.2 39.0 102.1 93.2 319.6
08/05 03:00 9 87 7.67 7 26 33 1024.9 0 17.8 26.2 38.9 101.8 92.7 317.9
08/05 02:50 8.7 87 7.53 6.7 24 28 1025 0 17.5 26.1 38.5 100.7 91.2 312.4
08/05 02:40 8.7 86 7.44 6.5 20 22 1025.2 0 17.3 25.9 38.1 99.7 90.0 308.1
08/05 02:30 9 85 7.5 6.6 19 24 1025.4 0 17.4 25.9 38.2 100.0 90.4 309.8
08/05 02:20 9.2 84 7.5 6.6 19 26 1025.5 0 17.4 25.9 38.1 99.7 90.2 309.1
08/05 02:10 9.4 83 7.51 6.7 28 32 1025.3 0 17.4 25.8 38.1 99.6 90.1 308.7
08/05 02:00 9.4 83 7.51 6.7 19 30 1025.4 0 17.4 25.8 38.1 99.6 90.1 308.7
08/05 01:50 9.6 81 7.42 6.5 17 20 1025.6 0 17.2 25.6 37.6 98.4 88.7 303.7
08/05 01:40 9.9 79 7.38 6.4 17 20 1025.8 0 17.1 25.5 37.3 97.6 87.8 300.8
08/05 01:30 9.8 79 7.33 6.3 13 17 1025.9 0 17.0 25.5 37.2 97.2 87.3 298.8
08/05 01:20 9.8 79 7.33 6.3 15 17 1025.9 0 17.0 25.5 37.2 97.2 87.3 298.8
08/05 01:10 9.8 78 7.24 6.2 20 26 1026 0 16.9 25.3 36.8 96.2 86.1 294.6
08/05 01:00 9.6 79 7.24 6.1 19 26 1026 0 16.9 25.4 36.9 96.4 86.3 295.4
08/05 00:50 9.3 79 7.1 5.9 19 26 1025.9 0 16.6 25.2 36.5 95.3 84.7 289.9
08/05 00:40 9.3 78 7.01 5.7 20 22 1025.8 0 16.4 25.1 36.1 94.3 83.5 285.6
08/05 00:30 9.2 77 6.88 5.4 20 26 1025.9 0 16.1 24.9 35.6 93.0 81.9 279.9
08/05 00:20 9.5 76 6.92 5.5 20 24 1025.9 0 16.2 24.9 35.6 93.1 82.1 280.7
08/05 00:10 9.8 74 6.87 5.4 22 26 1026 0 16.1 24.7 35.3 92.2 81.2 277.4
08/05 00:00 10.3 73 6.99 5.7 17 22 1026 0 16.3 24.8 35.6 92.9 82.2 281.2
07/05 23:50 10.5 72 6.98 5.7 15 17 1026.1 0 16.3 24.7 35.4 92.6 81.9 280.0
07/05 23:40 10.5 72 6.98 5.7 17 20 1026.4 0 16.3 24.7 35.5 92.6 81.9 280.1
07/05 23:30 10.1 73 6.9 5.5 19 28 1026.3 0 16.1 24.7 35.3 92.2 81.3 277.8
07/05 23:20 10.4 71 6.84 5.4 17 19 1026.4 0 16.0 24.5 34.9 91.2 80.2 274.0
07/05 23:10 10.5 70 6.79 5.3 20 22 1026.7 0 15.9 24.4 34.7 90.6 79.4 271.4
07/05 23:00 10.5 70 6.79 5.3 17 20 1026.7 0 15.9 24.4 34.7 90.6 79.4 271.4
07/05 22:50 10.2 71 6.76 5.2 15 17 1026.8 0 15.8 24.5 34.7 90.7 79.4 271.1
07/05 22:40 10.1 71 6.72 5.1 15 17 1026.8 0 15.7 24.4 34.6 90.4 78.9 269.6
07/05 22:30 10.1 71 6.72 5.1 15 17 1026.7 0 15.7 24.4 34.6 90.3 78.9 269.6
07/05 22:20 10 71 6.67 5 15 17 1026.9 0 15.6 24.4 34.5 89.9 78.4 267.7
07/05 22:10 9.8 72 6.68 5 17 20 1026.8 0 15.7 24.4 34.6 90.3 78.7 268.8
07/05 22:00 9.5 72 6.56 4.7 15 19 1026.6 0 15.4 24.3 34.2 89.3 77.4 264.3
07/05 21:50 9.5 72 6.56 4.7 15 15 1026.6 0 15.4 24.3 34.2 89.3 77.4 264.3
07/05 21:40 9.7 71 6.55 4.7 13 13 1026.6 0 15.4 24.2 34.1 89.0 77.1 263.2
07/05 21:30 10.1 70 6.62 4.9 19 24 1026.4 0 15.5 24.2 34.2 89.3 77.6 265.0
07/05 21:20 10.3 69 6.61 4.9 20 24 1026.4 0 15.5 24.2 34.1 88.9 77.3 263.9
07/05 21:10 10.4 68 6.56 4.8 20 24 1026.4 0 15.4 24.1 33.8 88.3 76.5 261.3
07/05 21:00 10.5 68 6.6 4.9 20 26 1026.3 0 15.5 24.1 33.9 88.6 76.9 262.7
07/05 20:50 10.2 70 6.66 5 19 20 1026.5 0 15.6 24.3 34.3 89.6 78.0 266.5
07/05 20:40 10.2 70 6.66 5 15 17 1026.5 0 15.6 24.3 34.3 89.6 78.0 266.5
07/05 20:30 9.8 71 6.59 4.8 15 17 1026.2 0 15.5 24.3 34.2 89.3 77.5 264.6
07/05 20:20 10.2 70 6.66 5 17 17 1026.1 0 15.6 24.3 34.3 89.5 78.0 266.4
07/05 20:10 10.8 67 6.62 4.9 15 17 1026 0 15.5 24.0 33.9 88.4 76.9 262.6
07/05 20:00 11 65 6.51 4.7 17 20 1026.1 0 15.2 23.8 33.4 87.1 75.3 257.0

Last Refresh: 08-May-2026 12:07:38

Bureau of Meteorology